BAW417 ELLX-EGLL
Flight info
| Callsign | BAW417 |
|---|---|
| Flight time | 1h 0m |
| Altitude | 38000 |
| Route | LNO N852 TERLA L608 LOGAN |
| Aircraft | A320/M-SDE3FGHIKRWXY/S |
Departure
| Time | 2026-05-06 09:47 |
|---|---|
| Airport | Luxembourg-Findel International Airport (ELLX) |
Arrival
| Time | 2026-05-06 10:47 |
|---|---|
| Airport | London Heathrow Airport (EGLL) |
| Time | Latitude | Longitude | Altitude | Speed | Heading |
|---|---|---|---|---|---|
| 2026-05-06 08:46 | 49.63418 | 6.21843 | 1230 ft | 0 kts | 330° |
| 2026-05-06 09:35 | 49.63416 | 6.21846 | 1230 ft | 3 kts | 330° |
| 2026-05-06 09:35 | 49.63393 | 6.21866 | 1230 ft | 3 kts | 330° |
| 2026-05-06 09:35 | 49.63374 | 6.21882 | 1230 ft | 4 kts | 329° |
| 2026-05-06 09:35 | 49.63356 | 6.21905 | 1230 ft | 4 kts | 283° |
| 2026-05-06 09:36 | 49.63357 | 6.21939 | 1230 ft | 3 kts | 259° |
| 2026-05-06 09:36 | 49.63358 | 6.21946 | 1230 ft | 0 kts | 259° |
| 2026-05-06 09:39 | 49.63357 | 6.21940 | 1230 ft | 3 kts | 259° |
| 2026-05-06 09:39 | 49.63350 | 6.21879 | 1230 ft | 7 kts | 259° |
| 2026-05-06 09:40 | 49.63317 | 6.21808 | 1230 ft | 9 kts | 199° |
| 2026-05-06 09:40 | 49.63276 | 6.21828 | 1230 ft | 10 kts | 150° |
| 2026-05-06 09:40 | 49.63145 | 6.21864 | 1227 ft | 11 kts | 239° |
| 2026-05-06 09:41 | 49.63120 | 6.21786 | 1226 ft | 13 kts | 244° |
| 2026-05-06 09:41 | 49.63075 | 6.21641 | 1226 ft | 16 kts | 244° |
| 2026-05-06 09:41 | 49.63024 | 6.21474 | 1227 ft | 18 kts | 244° |
| 2026-05-06 09:41 | 49.62969 | 6.21298 | 1231 ft | 18 kts | 244° |
| 2026-05-06 09:42 | 49.62914 | 6.21120 | 1233 ft | 19 kts | 245° |
| 2026-05-06 09:42 | 49.62853 | 6.20924 | 1241 ft | 21 kts | 245° |
| 2026-05-06 09:42 | 49.62791 | 6.20747 | 1248 ft | 18 kts | 232° |
| 2026-05-06 09:42 | 49.62692 | 6.20615 | 1241 ft | 20 kts | 218° |
| 2026-05-06 09:43 | 49.62598 | 6.20466 | 1245 ft | 21 kts | 229° |
| 2026-05-06 09:43 | 49.62506 | 6.20297 | 1228 ft | 22 kts | 234° |
| 2026-05-06 09:43 | 49.62433 | 6.20111 | 1217 ft | 21 kts | 240° |
| 2026-05-06 09:43 | 49.62359 | 6.19911 | 1205 ft | 24 kts | 240° |
| 2026-05-06 09:44 | 49.62278 | 6.19695 | 1193 ft | 22 kts | 240° |
| 2026-05-06 09:44 | 49.62204 | 6.19494 | 1182 ft | 22 kts | 240° |
| 2026-05-06 09:44 | 49.62134 | 6.19307 | 1173 ft | 20 kts | 240° |
| 2026-05-06 09:44 | 49.62054 | 6.19090 | 1164 ft | 26 kts | 240° |
| 2026-05-06 09:45 | 49.61977 | 6.18884 | 1158 ft | 20 kts | 240° |
| 2026-05-06 09:45 | 49.61902 | 6.18760 | 1157 ft | 13 kts | 218° |
| 2026-05-06 09:45 | 49.61829 | 6.18708 | 1157 ft | 12 kts | 174° |
| 2026-05-06 09:45 | 49.61775 | 6.18770 | 1160 ft | 7 kts | 119° |
| 2026-05-06 09:46 | 49.61779 | 6.18826 | 1162 ft | 4 kts | 62° |
| 2026-05-06 09:46 | 49.61785 | 6.18841 | 1161 ft | 0 kts | 59° |
| 2026-05-06 09:46 | 49.61787 | 6.18846 | 1161 ft | 7 kts | 59° |
| 2026-05-06 09:46 | 49.61939 | 6.19255 | 1168 ft | 79 kts | 60° |
| 2026-05-06 09:47 | 49.62304 | 6.20239 | 1223 ft | 130 kts | 60° |
| 2026-05-06 09:47 | 49.62827 | 6.21641 | 1299 ft | 165 kts | 57° |
| 2026-05-06 09:47 | 49.63382 | 6.23143 | 1974 ft | 161 kts | 58° |
| 2026-05-06 09:47 | 49.63938 | 6.24639 | 2699 ft | 161 kts | 59° |
| 2026-05-06 09:48 | 49.64498 | 6.26151 | 3278 ft | 162 kts | 61° |
| 2026-05-06 09:48 | 49.65073 | 6.27704 | 3621 ft | 179 kts | 61° |
| 2026-05-06 09:48 | 49.65728 | 6.29479 | 3889 ft | 201 kts | 61° |
| 2026-05-06 09:48 | 49.66464 | 6.31462 | 4164 ft | 226 kts | 61° |
| 2026-05-06 09:49 | 49.67289 | 6.33684 | 4535 ft | 250 kts | 61° |
| 2026-05-06 09:49 | 49.68204 | 6.36129 | 5005 ft | 273 kts | 57° |
| 2026-05-06 09:49 | 49.69588 | 6.38170 | 5729 ft | 282 kts | 24° |
| 2026-05-06 09:49 | 49.71493 | 6.38721 | 6587 ft | 282 kts | 351° |
| 2026-05-06 09:50 | 49.73278 | 6.37595 | 7434 ft | 279 kts | 317° |
| 2026-05-06 09:50 | 49.74560 | 6.35360 | 8340 ft | 279 kts | 302° |
| 2026-05-06 09:50 | 49.75619 | 6.32820 | 9279 ft | 281 kts | 301° |
| 2026-05-06 09:50 | 49.76655 | 6.30268 | 10084 ft | 288 kts | 300° |
| 2026-05-06 09:51 | 49.77762 | 6.27530 | 10374 ft | 312 kts | 300° |
| 2026-05-06 09:51 | 49.79049 | 6.24680 | 10700 ft | 331 kts | 307° |
| 2026-05-06 09:51 | 49.80550 | 6.21958 | 11362 ft | 338 kts | 310° |
| 2026-05-06 09:51 | 49.82170 | 6.19281 | 12073 ft | 342 kts | 312° |
| 2026-05-06 09:52 | 49.83834 | 6.16615 | 12810 ft | 346 kts | 312° |
| 2026-05-06 09:52 | 49.85659 | 6.14117 | 13554 ft | 352 kts | 322° |
| 2026-05-06 09:52 | 49.87790 | 6.12158 | 14214 ft | 359 kts | 333° |
| 2026-05-06 09:52 | 49.90105 | 6.10742 | 14828 ft | 364 kts | 338° |
| 2026-05-06 09:53 | 49.92497 | 6.09380 | 15449 ft | 368 kts | 338° |
| 2026-05-06 09:53 | 49.94921 | 6.07988 | 16048 ft | 373 kts | 338° |
| 2026-05-06 09:53 | 49.97378 | 6.06572 | 16652 ft | 377 kts | 338° |
| 2026-05-06 09:53 | 49.99852 | 6.05145 | 17266 ft | 381 kts | 338° |
| 2026-05-06 09:54 | 50.02339 | 6.03711 | 17873 ft | 386 kts | 338° |
| 2026-05-06 09:54 | 50.04882 | 6.02246 | 18486 ft | 390 kts | 338° |
| 2026-05-06 09:54 | 50.07428 | 6.00785 | 19122 ft | 392 kts | 338° |
| 2026-05-06 09:54 | 50.09992 | 5.99313 | 19731 ft | 395 kts | 338° |
| 2026-05-06 09:55 | 50.12590 | 5.97819 | 20336 ft | 398 kts | 338° |
| 2026-05-06 09:55 | 50.15202 | 5.96314 | 20918 ft | 401 kts | 338° |
| 2026-05-06 09:55 | 50.17832 | 5.94798 | 21547 ft | 403 kts | 338° |
| 2026-05-06 09:55 | 50.20429 | 5.93297 | 22140 ft | 404 kts | 339° |
| 2026-05-06 09:56 | 50.23077 | 5.91764 | 22699 ft | 407 kts | 339° |
| 2026-05-06 09:56 | 50.25758 | 5.90210 | 23238 ft | 410 kts | 338° |
| 2026-05-06 09:56 | 50.28445 | 5.88649 | 23718 ft | 413 kts | 339° |
| 2026-05-06 09:56 | 50.31144 | 5.87078 | 24225 ft | 414 kts | 340° |
| 2026-05-06 09:57 | 50.33820 | 5.85523 | 24677 ft | 415 kts | 340° |
| 2026-05-06 09:57 | 50.36549 | 5.83938 | 25114 ft | 418 kts | 340° |
| 2026-05-06 09:57 | 50.39292 | 5.82343 | 25535 ft | 420 kts | 340° |
| 2026-05-06 09:57 | 50.42013 | 5.80758 | 25950 ft | 422 kts | 340° |
| 2026-05-06 09:58 | 50.44771 | 5.79146 | 26362 ft | 424 kts | 340° |
| 2026-05-06 09:58 | 50.47551 | 5.77521 | 26751 ft | 426 kts | 341° |
| 2026-05-06 09:58 | 50.50351 | 5.75883 | 27147 ft | 429 kts | 340° |
| 2026-05-06 09:58 | 50.53158 | 5.74235 | 27497 ft | 433 kts | 341° |
| 2026-05-06 09:59 | 50.55997 | 5.72566 | 27892 ft | 436 kts | 341° |
| 2026-05-06 09:59 | 50.58849 | 5.70900 | 28269 ft | 438 kts | 341° |
| 2026-05-06 09:59 | 50.61703 | 5.69161 | 28636 ft | 442 kts | 336° |
| 2026-05-06 09:59 | 50.64380 | 5.66865 | 29001 ft | 445 kts | 327° |
| 2026-05-06 10:00 | 50.66825 | 5.63828 | 29357 ft | 449 kts | 316° |
| 2026-05-06 10:00 | 50.68856 | 5.60072 | 29737 ft | 452 kts | 304° |
| 2026-05-06 10:00 | 50.70381 | 5.55717 | 30022 ft | 456 kts | 292° |
| 2026-05-06 10:00 | 50.71413 | 5.50976 | 30294 ft | 459 kts | 287° |
| 2026-05-06 10:01 | 50.72361 | 5.46171 | 30690 ft | 458 kts | 287° |
| 2026-05-06 10:01 | 50.73315 | 5.41384 | 31137 ft | 456 kts | 287° |
| 2026-05-06 10:01 | 50.74272 | 5.36612 | 31576 ft | 455 kts | 287° |
| 2026-05-06 10:01 | 50.75228 | 5.31853 | 32090 ft | 452 kts | 287° |
| 2026-05-06 10:02 | 50.76175 | 5.27132 | 32592 ft | 450 kts | 287° |
| 2026-05-06 10:02 | 50.77116 | 5.22419 | 33091 ft | 447 kts | 286° |
| 2026-05-06 10:02 | 50.78046 | 5.17741 | 33581 ft | 446 kts | 286° |
| 2026-05-06 10:02 | 50.78970 | 5.13065 | 33819 ft | 445 kts | 287° |
| 2026-05-06 10:03 | 50.80796 | 5.03745 | 33856 ft | 442 kts | 286° |
| 2026-05-06 10:03 | 50.82574 | 4.94488 | 33852 ft | 442 kts | 285° |
| 2026-05-06 10:04 | 50.84342 | 4.85174 | 33858 ft | 442 kts | 286° |
| 2026-05-06 10:04 | 50.86093 | 4.75903 | 33858 ft | 441 kts | 285° |
| 2026-05-06 10:05 | 50.87851 | 4.66563 | 33893 ft | 442 kts | 286° |
| 2026-05-06 10:05 | 50.89604 | 4.57217 | 33893 ft | 441 kts | 288° |
| 2026-05-06 10:06 | 50.92259 | 4.48564 | 33897 ft | 441 kts | 301° |
| 2026-05-06 10:06 | 50.95475 | 4.40241 | 33896 ft | 441 kts | 301° |
| 2026-05-06 10:07 | 50.98654 | 4.31944 | 33893 ft | 441 kts | 301° |
| 2026-05-06 10:07 | 51.01840 | 4.23578 | 33885 ft | 442 kts | 301° |
| 2026-05-06 10:08 | 51.05016 | 4.15201 | 33888 ft | 442 kts | 301° |
| 2026-05-06 10:08 | 51.08177 | 4.06873 | 33898 ft | 442 kts | 301° |
| 2026-05-06 10:09 | 51.11353 | 3.98483 | 33882 ft | 442 kts | 301° |
| 2026-05-06 10:09 | 51.14515 | 3.90087 | 33881 ft | 442 kts | 301° |
| 2026-05-06 10:10 | 51.17675 | 3.81665 | 33880 ft | 442 kts | 301° |
| 2026-05-06 10:10 | 51.20815 | 3.73281 | 33884 ft | 443 kts | 301° |
| 2026-05-06 10:11 | 51.23975 | 3.64818 | 33881 ft | 443 kts | 301° |
| 2026-05-06 10:11 | 51.27123 | 3.56357 | 33894 ft | 443 kts | 301° |
| 2026-05-06 10:12 | 51.30241 | 3.47960 | 33895 ft | 442 kts | 301° |
| 2026-05-06 10:12 | 51.33361 | 3.39482 | 33909 ft | 442 kts | 300° |
| 2026-05-06 10:13 | 51.35995 | 3.30599 | 33905 ft | 441 kts | 290° |
| 2026-05-06 10:13 | 51.38175 | 3.21408 | 33911 ft | 441 kts | 290° |
| 2026-05-06 10:14 | 51.40334 | 3.12266 | 33909 ft | 441 kts | 290° |
| 2026-05-06 10:14 | 51.42496 | 3.03064 | 33928 ft | 441 kts | 290° |
| 2026-05-06 10:15 | 51.44660 | 2.93833 | 33922 ft | 441 kts | 290° |
| 2026-05-06 10:15 | 51.46801 | 2.84691 | 33943 ft | 441 kts | 290° |
| 2026-05-06 10:16 | 51.48946 | 2.75487 | 33945 ft | 439 kts | 290° |
| 2026-05-06 10:16 | 51.51068 | 2.66310 | 33959 ft | 438 kts | 290° |
| 2026-05-06 10:17 | 51.53179 | 2.57116 | 33950 ft | 437 kts | 290° |
| 2026-05-06 10:17 | 51.55269 | 2.48007 | 33941 ft | 437 kts | 289° |
| 2026-05-06 10:18 | 51.56331 | 2.43360 | 33674 ft | 437 kts | 289° |
| 2026-05-06 10:18 | 51.57363 | 2.38836 | 33398 ft | 437 kts | 289° |
| 2026-05-06 10:18 | 51.58408 | 2.34246 | 33121 ft | 437 kts | 289° |
| 2026-05-06 10:18 | 51.59457 | 2.29651 | 32855 ft | 437 kts | 288° |
| 2026-05-06 10:19 | 51.60505 | 2.25056 | 32587 ft | 438 kts | 289° |
| 2026-05-06 10:19 | 51.61550 | 2.20458 | 32302 ft | 437 kts | 288° |
| 2026-05-06 10:19 | 51.62588 | 2.15879 | 31751 ft | 433 kts | 288° |
| 2026-05-06 10:19 | 51.63602 | 2.11394 | 31207 ft | 429 kts | 289° |
| 2026-05-06 10:20 | 51.64619 | 2.06880 | 30653 ft | 426 kts | 288° |
| 2026-05-06 10:20 | 51.65626 | 2.02388 | 30097 ft | 423 kts | 288° |
| 2026-05-06 10:20 | 51.66623 | 1.97931 | 29482 ft | 420 kts | 288° |
| 2026-05-06 10:20 | 51.67608 | 1.93525 | 28937 ft | 416 kts | 288° |
| 2026-05-06 10:21 | 51.68572 | 1.89210 | 28399 ft | 412 kts | 288° |
| 2026-05-06 10:21 | 51.69543 | 1.84845 | 27856 ft | 418 kts | 289° |
| 2026-05-06 10:21 | 51.70528 | 1.80402 | 27295 ft | 421 kts | 287° |
| 2026-05-06 10:21 | 51.71510 | 1.75964 | 26741 ft | 418 kts | 287° |
| 2026-05-06 10:22 | 51.72481 | 1.71561 | 26196 ft | 415 kts | 288° |
| 2026-05-06 10:22 | 51.73445 | 1.67183 | 25664 ft | 412 kts | 287° |
| 2026-05-06 10:22 | 51.74222 | 1.62762 | 25142 ft | 407 kts | 279° |
| 2026-05-06 10:22 | 51.74492 | 1.58289 | 24590 ft | 402 kts | 268° |
| 2026-05-06 10:23 | 51.74298 | 1.53791 | 23978 ft | 400 kts | 263° |
| 2026-05-06 10:23 | 51.74008 | 1.49336 | 23348 ft | 399 kts | 263° |
| 2026-05-06 10:23 | 51.73721 | 1.44913 | 22872 ft | 392 kts | 263° |
| 2026-05-06 10:23 | 51.73439 | 1.40535 | 22125 ft | 393 kts | 263° |
| 2026-05-06 10:24 | 51.73157 | 1.36198 | 21611 ft | 388 kts | 263° |
| 2026-05-06 10:24 | 51.72875 | 1.31914 | 21164 ft | 384 kts | 263° |
| 2026-05-06 10:24 | 51.72595 | 1.27659 | 20770 ft | 378 kts | 263° |
| 2026-05-06 10:24 | 51.72316 | 1.23416 | 20087 ft | 381 kts | 263° |
| 2026-05-06 10:25 | 51.72033 | 1.19159 | 19466 ft | 381 kts | 264° |
| 2026-05-06 10:25 | 51.71748 | 1.14890 | 18854 ft | 381 kts | 264° |
| 2026-05-06 10:25 | 51.71467 | 1.10697 | 18265 ft | 381 kts | 264° |
| 2026-05-06 10:25 | 51.71179 | 1.06452 | 17585 ft | 380 kts | 264° |
| 2026-05-06 10:26 | 51.70890 | 1.02212 | 16917 ft | 379 kts | 264° |
| 2026-05-06 10:26 | 51.70600 | 0.97991 | 16390 ft | 374 kts | 264° |
| 2026-05-06 10:26 | 51.70318 | 0.93910 | 16193 ft | 360 kts | 264° |
| 2026-05-06 10:26 | 51.70042 | 0.89950 | 15825 ft | 351 kts | 264° |
| 2026-05-06 10:27 | 51.69770 | 0.86052 | 15283 ft | 349 kts | 264° |
| 2026-05-06 10:27 | 51.69500 | 0.82215 | 14765 ft | 347 kts | 264° |
| 2026-05-06 10:27 | 51.69228 | 0.78354 | 14250 ft | 345 kts | 264° |
| 2026-05-06 10:27 | 51.68956 | 0.74520 | 13741 ft | 344 kts | 264° |
| 2026-05-06 10:28 | 51.68775 | 0.71986 | 13366 ft | 343 kts | 265° |
| 2026-05-06 10:28 | 51.68503 | 0.68163 | 12804 ft | 341 kts | 265° |
| 2026-05-06 10:28 | 51.68146 | 0.63156 | 12077 ft | 338 kts | 265° |
| 2026-05-06 10:28 | 51.67969 | 0.60660 | 11718 ft | 336 kts | 264° |
| 2026-05-06 10:29 | 51.67688 | 0.56920 | 11185 ft | 335 kts | 264° |
| 2026-05-06 10:29 | 51.67411 | 0.53208 | 10663 ft | 334 kts | 265° |
| 2026-05-06 10:29 | 51.67145 | 0.49499 | 10148 ft | 332 kts | 266° |
| 2026-05-06 10:29 | 51.66882 | 0.45819 | 9665 ft | 329 kts | 266° |
| 2026-05-06 10:30 | 51.66601 | 0.42179 | 9227 ft | 324 kts | 266° |
| 2026-05-06 10:30 | 51.66347 | 0.38652 | 8931 ft | 305 kts | 267° |
| 2026-05-06 10:30 | 51.66111 | 0.35378 | 8672 ft | 285 kts | 266° |
| 2026-05-06 10:30 | 51.65887 | 0.32295 | 8430 ft | 277 kts | 266° |
| 2026-05-06 10:31 | 51.65665 | 0.29236 | 8178 ft | 273 kts | 266° |
| 2026-05-06 10:31 | 51.65432 | 0.26223 | 8004 ft | 270 kts | 266° |
| 2026-05-06 10:31 | 51.65203 | 0.23221 | 7989 ft | 271 kts | 266° |
| 2026-05-06 10:31 | 51.64966 | 0.20206 | 7996 ft | 271 kts | 266° |
| 2026-05-06 10:32 | 51.64727 | 0.17197 | 7996 ft | 271 kts | 266° |
| 2026-05-06 10:32 | 51.64496 | 0.14175 | 7994 ft | 272 kts | 267° |
| 2026-05-06 10:32 | 51.64262 | 0.11151 | 8000 ft | 272 kts | 266° |
| 2026-05-06 10:32 | 51.64029 | 0.08128 | 7999 ft | 271 kts | 266° |
| 2026-05-06 10:33 | 51.63800 | 0.05154 | 8001 ft | 272 kts | 266° |
| 2026-05-06 10:33 | 51.63563 | 0.02131 | 7996 ft | 272 kts | 267° |
| 2026-05-06 10:33 | 51.63323 | -0.00886 | 8016 ft | 271 kts | 266° |
| 2026-05-06 10:33 | 51.63091 | -0.03843 | 8016 ft | 270 kts | 266° |
| 2026-05-06 10:34 | 51.62854 | -0.06910 | 7813 ft | 269 kts | 266° |
| 2026-05-06 10:34 | 51.62623 | -0.09857 | 7564 ft | 267 kts | 266° |
| 2026-05-06 10:34 | 51.62386 | -0.12827 | 7310 ft | 266 kts | 266° |
| 2026-05-06 10:34 | 51.62147 | -0.15772 | 7094 ft | 263 kts | 266° |
| 2026-05-06 10:35 | 51.61907 | -0.18667 | 7021 ft | 264 kts | 266° |
| 2026-05-06 10:35 | 51.61661 | -0.21600 | 7026 ft | 265 kts | 266° |
| 2026-05-06 10:35 | 51.61417 | -0.24540 | 7028 ft | 265 kts | 266° |
| 2026-05-06 10:35 | 51.61170 | -0.27488 | 7028 ft | 264 kts | 266° |
| 2026-05-06 10:36 | 51.60925 | -0.30422 | 7002 ft | 265 kts | 266° |
| 2026-05-06 10:36 | 51.60680 | -0.33362 | 7002 ft | 265 kts | 266° |
| 2026-05-06 10:36 | 51.60432 | -0.36285 | 7002 ft | 264 kts | 266° |
| 2026-05-06 10:36 | 51.60185 | -0.39219 | 7002 ft | 264 kts | 266° |
| 2026-05-06 10:37 | 51.59938 | -0.42155 | 7003 ft | 264 kts | 266° |
| 2026-05-06 10:37 | 51.59692 | -0.45052 | 7002 ft | 264 kts | 266° |
| 2026-05-06 10:37 | 51.59441 | -0.47988 | 6992 ft | 265 kts | 266° |
| 2026-05-06 10:37 | 51.59186 | -0.50952 | 6619 ft | 269 kts | 266° |
| 2026-05-06 10:38 | 51.58923 | -0.53945 | 6234 ft | 270 kts | 266° |
| 2026-05-06 10:38 | 51.58659 | -0.56879 | 5834 ft | 260 kts | 266° |
| 2026-05-06 10:38 | 51.58397 | -0.59708 | 5442 ft | 252 kts | 266° |
| 2026-05-06 10:38 | 51.58144 | -0.62425 | 5058 ft | 245 kts | 266° |
| 2026-05-06 10:39 | 51.57894 | -0.65104 | 4737 ft | 240 kts | 266° |
| 2026-05-06 10:39 | 51.57648 | -0.67767 | 4419 ft | 242 kts | 266° |
| 2026-05-06 10:39 | 51.57411 | -0.70453 | 4105 ft | 243 kts | 266° |
| 2026-05-06 10:39 | 51.57178 | -0.73107 | 4001 ft | 234 kts | 266° |
| 2026-05-06 10:40 | 51.56943 | -0.75690 | 4002 ft | 233 kts | 266° |
| 2026-05-06 10:40 | 51.56710 | -0.78280 | 4009 ft | 234 kts | 266° |
| 2026-05-06 10:40 | 51.56468 | -0.80862 | 4010 ft | 233 kts | 266° |
| 2026-05-06 10:40 | 51.56165 | -0.83425 | 4011 ft | 236 kts | 252° |
| 2026-05-06 10:41 | 51.55221 | -0.85568 | 3975 ft | 246 kts | 221° |
| 2026-05-06 10:41 | 51.53675 | -0.86707 | 3763 ft | 245 kts | 187° |
| 2026-05-06 10:41 | 51.52014 | -0.86403 | 3581 ft | 240 kts | 154° |
| 2026-05-06 10:41 | 51.50713 | -0.84796 | 3398 ft | 235 kts | 126° |
| 2026-05-06 10:42 | 51.49733 | -0.82701 | 3220 ft | 234 kts | 121° |
| 2026-05-06 10:42 | 51.48818 | -0.80600 | 3076 ft | 231 kts | 121° |
| 2026-05-06 10:42 | 51.47951 | -0.78433 | 2999 ft | 227 kts | 110° |
| 2026-05-06 10:42 | 51.47606 | -0.76097 | 2999 ft | 206 kts | 86° |
| 2026-05-06 10:43 | 51.47614 | -0.73885 | 2996 ft | 189 kts | 84° |
| 2026-05-06 10:43 | 51.47626 | -0.71871 | 2975 ft | 174 kts | 85° |
| 2026-05-06 10:43 | 51.47639 | -0.69954 | 2762 ft | 170 kts | 85° |
| 2026-05-06 10:44 | 51.47662 | -0.66258 | 2326 ft | 164 kts | 85° |
| 2026-05-06 10:44 | 51.47680 | -0.64436 | 2119 ft | 162 kts | 83° |
| 2026-05-06 10:44 | 51.47692 | -0.62632 | 1876 ft | 161 kts | 86° |
| 2026-05-06 10:44 | 51.47701 | -0.60836 | 1650 ft | 161 kts | 86° |
| 2026-05-06 10:45 | 51.47703 | -0.59065 | 1410 ft | 153 kts | 85° |
| 2026-05-06 10:45 | 51.47701 | -0.57443 | 1284 ft | 140 kts | 85° |
| 2026-05-06 10:45 | 51.47717 | -0.55904 | 1106 ft | 136 kts | 83° |
| 2026-05-06 10:45 | 51.47724 | -0.54383 | 828 ft | 138 kts | 84° |
| 2026-05-06 10:46 | 51.47736 | -0.52845 | 680 ft | 135 kts | 82° |
| 2026-05-06 10:46 | 51.47744 | -0.51343 | 465 ft | 135 kts | 85° |
| 2026-05-06 10:46 | 51.47746 | -0.49854 | 297 ft | 133 kts | 84° |
| 2026-05-06 10:46 | 51.47751 | -0.48371 | 119 ft | 132 kts | 85° |
| 2026-05-06 10:47 | 51.47759 | -0.47025 | 88 ft | 101 kts | 89° |
| 2026-05-06 10:47 | 51.47759 | -0.46177 | 88 ft | 56 kts | 89° |
| 2026-05-06 10:47 | 51.47761 | -0.45662 | 85 ft | 27 kts | 89° |
| 2026-05-06 10:47 | 51.47713 | -0.45476 | 86 ft | 17 kts | 159° |
| 2026-05-06 10:48 | 51.47627 | -0.45469 | 86 ft | 9 kts | 186° |
| 2026-05-06 10:48 | 51.47596 | -0.45549 | 86 ft | 9 kts | 268° |
| 2026-05-06 10:48 | 51.47596 | -0.45645 | 86 ft | 4 kts | 270° |
| 2026-05-06 10:48 | 51.47596 | -0.45649 | 86 ft | 0 kts | 270° |
| 2026-05-06 10:49 | 51.47596 | -0.45653 | 86 ft | 1 kts | 270° |
| 2026-05-06 10:49 | 51.47596 | -0.45686 | 86 ft | 4 kts | 270° |
| 2026-05-06 10:49 | 51.47575 | -0.45735 | 86 ft | 7 kts | 205° |
| 2026-05-06 10:50 | 51.47524 | -0.45769 | 87 ft | 9 kts | 238° |
| 2026-05-06 10:50 | 51.47518 | -0.45886 | 86 ft | 12 kts | 269° |
| 2026-05-06 10:50 | 51.47517 | -0.46030 | 86 ft | 13 kts | 269° |
| 2026-05-06 10:50 | 51.47515 | -0.46142 | 86 ft | 8 kts | 257° |
| 2026-05-06 10:51 | 51.47465 | -0.46172 | 88 ft | 9 kts | 160° |
| 2026-05-06 10:51 | 51.47413 | -0.46116 | 88 ft | 8 kts | 145° |
| 2026-05-06 10:51 | 51.47376 | -0.46107 | 88 ft | 6 kts | 218° |
| 2026-05-06 10:51 | 51.47354 | -0.46158 | 86 ft | 4 kts | 236° |
| 2026-05-06 10:52 | 51.47344 | -0.46182 | 86 ft | 2 kts | 236° |
| 2026-05-06 10:52 | 51.47339 | -0.46194 | 89 ft | 0 kts | 235° |